KGTR

Golden Triangle Regional Airport

Columbus/W Point/Starkville, Mississippi, USA
METAR KGTR 170456Z AUTO 13005KT 10SM CLR 05/M02 A3023 RMK AO2 SLP239 T00501017
Observed Flight Rules
Dec-17 @ 04:56 UTC (an hour ago) Visual Flight Rules
Wind Visibility Clouds
130° at 5 knots 10 miles
  • Clear skies
Temperatures Readings
Current 5°C / 41°F
Dewpoint -2°C / 28°F
Humidity 61%
Altimeter 30.23" Hg
Pressure 1023.9 hPa
Elevation 80
METAR KGTR 170456Z AUTO 13005KT 10SM CLR 05/M02 A3023 RMK AO2 SLP239 T00501017
Observed Flight Rules
Dec-17 @ 04:56 UTC
(an hour ago)
VFR
Wind Visibility
130° at 5 knots 10 miles
Clouds
  • Clear skies
Temperature Dewpoint
5°C / 41°F -2°C / 28°F
Humidity Altimeter Pressure
61% 30.23" Hg 1023.9 hPa